Terminal Aerodrome Forecast
Issued by NWS Buffalo, NY

Home | Current Version | Previous Version | Text Only | Print | Product List | Glossary On
Versions: 1 2 3 4 5 6 7 8 9 10 11 12 13 14 15 16 17 18 19 20 21 22 23 24 25 26
000
FTUS41 KBUF 281512 AAA
TAFROC
TAF AMD
KROC 281512Z 2815/2912 32012G20KT P6SM BKN025
     FM281630 32009KT P6SM SCT030
     FM282200 34004KT P6SM SKC
     FM290000 VRB03KT P6SM SKC=

USA.gov is the U.S. government's official web portal to all federal, state and local government web resources and services.